createdAt,value
2018-02-24T00:09:48.275Z,11
2018-02-24T00:19:48.224Z,12
2018-02-24T00:29:48.227Z,12
2018-02-24T00:39:48.212Z,11
2018-02-24T00:49:48.277Z,12
2018-02-24T00:59:48.244Z,13
2018-02-24T01:09:48.341Z,13
2018-02-24T01:19:48.344Z,14
2018-02-24T01:29:48.371Z,12
2018-02-24T01:39:48.312Z,14
2018-02-24T01:49:49.985Z,14
2018-02-24T01:59:48.369Z,14
2018-02-24T02:09:48.273Z,14
2018-02-24T02:19:48.261Z,13
2018-02-24T02:29:48.277Z,15
2018-02-24T02:39:48.301Z,11
2018-02-24T02:49:48.345Z,11
2018-02-24T02:59:48.481Z,15
2018-02-24T03:09:48.243Z,14
2018-02-24T03:19:48.483Z,11
2018-02-24T03:29:48.256Z,14
2018-02-24T03:39:48.354Z,12
2018-02-24T03:49:48.351Z,15
2018-02-24T03:59:48.475Z,13
2018-02-24T04:09:48.361Z,13
2018-02-24T04:19:48.360Z,14
2018-02-24T04:29:48.454Z,14
2018-02-24T04:39:48.530Z,13
2018-02-24T04:49:48.402Z,14
2018-02-24T04:59:48.342Z,14
2018-02-24T05:09:48.331Z,15
2018-02-24T05:19:48.384Z,14
2018-02-24T05:29:48.399Z,14
2018-02-24T05:39:48.522Z,17
2018-02-24T05:49:48.415Z,13
2018-02-24T05:59:48.388Z,13
2018-02-24T06:09:48.475Z,16
2018-02-24T06:19:48.438Z,15
2018-02-24T06:29:48.435Z,14
2018-02-24T06:39:48.463Z,15
2018-02-24T06:49:48.512Z,15
2018-02-24T06:59:48.505Z,14
2018-02-24T07:09:48.614Z,15
2018-02-24T07:19:48.421Z,14
2018-02-24T07:29:48.430Z,13
2018-02-24T07:39:48.516Z,14
2018-02-24T07:49:49.124Z,12
2018-02-24T07:59:48.499Z,13
2018-02-24T08:09:48.516Z,11
2018-02-24T08:19:48.500Z,12
2018-02-24T08:29:48.590Z,12
2018-02-24T08:39:48.531Z,10
2018-02-24T08:49:48.578Z,10
2018-02-24T08:59:48.697Z,9
2018-02-24T09:09:48.584Z,10
2018-02-24T09:19:48.552Z,8
2018-02-24T09:29:48.871Z,8
2018-02-24T09:39:48.558Z,9
2018-02-24T09:49:48.666Z,8
2018-02-24T09:59:48.666Z,6
2018-02-24T10:09:49.873Z,7
2018-02-24T10:19:48.738Z,7
2018-02-24T10:29:48.744Z,7
2018-02-24T10:39:48.791Z,6
2018-02-24T10:49:48.875Z,7
2018-02-24T10:59:48.852Z,7
2018-02-24T11:09:48.800Z,5
2018-02-24T11:19:48.763Z,4
2018-02-24T11:29:48.711Z,4
2018-02-24T11:39:48.778Z,4
2018-02-24T11:49:48.660Z,5
2018-02-24T11:59:48.730Z,5
2018-02-24T12:09:48.743Z,3
2018-02-24T12:19:48.804Z,4
2018-02-24T12:29:48.760Z,5
2018-02-24T12:39:48.977Z,4
2018-02-24T12:49:48.839Z,11
2018-02-24T12:59:48.868Z,5
2018-02-24T13:09:48.780Z,5
2018-02-24T13:19:48.851Z,7
2018-02-24T13:29:48.800Z,6
2018-02-24T13:39:48.782Z,7
2018-02-24T13:49:49.484Z,5
2018-02-24T13:59:49.190Z,7
2018-02-24T14:09:48.806Z,5
2018-02-24T14:19:48.811Z,6
2018-02-24T14:29:48.874Z,5
2018-02-24T14:39:48.776Z,7
2018-02-24T14:49:48.876Z,6
2018-02-24T14:59:48.881Z,6
2018-02-24T15:09:48.894Z,4
2018-02-24T15:19:48.839Z,4
2018-02-24T15:29:48.914Z,3
2018-02-24T15:39:48.899Z,3
2018-02-24T15:49:48.873Z,3
2018-02-24T15:59:48.938Z,2
2018-02-24T16:09:48.836Z,2
2018-02-24T16:19:48.944Z,3
2018-02-24T16:29:48.851Z,2
2018-02-24T16:39:48.954Z,2
2018-02-24T16:49:48.932Z,2
2018-02-24T16:59:49.036Z,2
2018-02-24T17:09:48.940Z,2
2018-02-24T17:19:48.918Z,2
2018-02-24T17:29:48.985Z,2
2018-02-24T17:39:48.936Z,2
2018-02-24T17:49:49.065Z,2
2018-02-24T17:59:49.027Z,2
2018-02-24T18:09:49.032Z,1
2018-02-24T18:19:48.956Z,2
2018-02-24T18:29:49.089Z,2
2018-02-24T18:39:49.062Z,2
2018-02-24T18:49:49.043Z,2
2018-02-24T18:59:49.014Z,2
2018-02-24T19:09:49.004Z,2
2018-02-24T19:19:49.039Z,1
2018-02-24T19:29:49.017Z,2
2018-02-24T19:39:49.125Z,2
2018-02-24T19:49:49.032Z,3
2018-02-24T19:59:49.114Z,3
2018-02-24T20:09:49.108Z,3
2018-02-24T20:19:49.147Z,3
2018-02-24T20:29:49.092Z,2
2018-02-24T20:39:49.092Z,3
2018-02-24T20:49:49.143Z,2
2018-02-24T20:59:49.713Z,2
2018-02-24T21:09:49.219Z,2
2018-02-24T21:19:49.178Z,2
2018-02-24T21:29:49.159Z,2
2018-02-24T21:39:49.369Z,2
2018-02-24T21:49:49.417Z,2
2018-02-24T21:59:49.182Z,2
2018-02-24T22:09:49.209Z,2
2018-02-24T22:19:49.239Z,3
2018-02-24T22:29:49.178Z,3
2018-02-24T22:39:49.168Z,3
2018-02-24T22:49:49.140Z,2
2018-02-24T22:59:49.214Z,3
2018-02-24T23:09:49.210Z,3
2018-02-24T23:19:49.242Z,3
2018-02-24T23:29:49.255Z,3
2018-02-24T23:39:49.126Z,3
2018-02-24T23:49:49.242Z,3
2018-02-24T23:59:49.175Z,2
